sensor_id;sensor_type;location;lat;lon;timestamp;pressure;altitude;pressure_sealevel;temperature;humidity
50550;BME280;36505;52.512;13.460;2022-11-20T00:01:16;100656.03;;;1.24;87.70
50550;BME280;36505;52.512;13.460;2022-11-20T00:03:43;100658.28;;;1.21;87.35
50550;BME280;36505;52.512;13.460;2022-11-20T00:06:14;100656.97;;;1.16;87.44
50550;BME280;36505;52.512;13.460;2022-11-20T00:08:40;100651.09;;;1.13;86.96
50550;BME280;36505;52.512;13.460;2022-11-20T00:11:07;100648.88;;;1.16;87.44
50550;BME280;36505;52.512;13.460;2022-11-20T00:13:33;100651.28;;;1.11;87.06
50550;BME280;36505;52.512;13.460;2022-11-20T00:16:01;100652.97;;;1.12;87.33
50550;BME280;36505;52.512;13.460;2022-11-20T00:18:27;100643.19;;;1.11;87.29
50550;BME280;36505;52.512;13.460;2022-11-20T00:20:52;100648.59;;;1.11;87.03
50550;BME280;36505;52.512;13.460;2022-11-20T00:23:18;100644.59;;;1.07;86.69
50550;BME280;36505;52.512;13.460;2022-11-20T00:25:44;100650.34;;;1.04;87.00
50550;BME280;36505;52.512;13.460;2022-11-20T00:28:09;100651.00;;;1.06;86.84
50550;BME280;36505;52.512;13.460;2022-11-20T00:30:35;100648.97;;;1.08;86.96
50550;BME280;36505;52.512;13.460;2022-11-20T00:33:00;100650.00;;;1.07;86.58
50550;BME280;36505;52.512;13.460;2022-11-20T00:35:25;100653.72;;;1.06;86.72
50550;BME280;36505;52.512;13.460;2022-11-20T00:37:51;100649.34;;;1.05;86.86
50550;BME280;36505;52.512;13.460;2022-11-20T00:40:16;100656.22;;;1.08;86.88
50550;BME280;36505;52.512;13.460;2022-11-20T00:42:41;100657.69;;;1.10;85.96
50550;BME280;36505;52.512;13.460;2022-11-20T00:45:07;100651.69;;;1.08;86.39
50550;BME280;36505;52.512;13.460;2022-11-20T00:47:32;100648.50;;;1.05;86.72
50550;BME280;36505;52.512;13.460;2022-11-20T00:49:58;100650.84;;;1.08;86.93
50550;BME280;36505;52.512;13.460;2022-11-20T00:52:23;100651.69;;;1.08;86.73
50550;BME280;36505;52.512;13.460;2022-11-20T00:54:48;100651.47;;;1.10;86.76
50550;BME280;36505;52.512;13.460;2022-11-20T00:57:14;100652.97;;;1.12;86.45
50550;BME280;36505;52.512;13.460;2022-11-20T00:59:39;100656.03;;;1.09;86.16
50550;BME280;36505;52.512;13.460;2022-11-20T01:02:04;100660.97;;;1.06;86.38
50550;BME280;36505;52.512;13.460;2022-11-20T01:04:30;100643.00;;;0.98;86.08
50550;BME280;36505;52.512;13.460;2022-11-20T01:06:55;100645.69;;;0.98;86.26
50550;BME280;36505;52.512;13.460;2022-11-20T01:09:21;100656.75;;;1.03;86.47
50550;BME280;36505;52.512;13.460;2022-11-20T01:11:46;100649.06;;;1.00;86.60
50550;BME280;36505;52.512;13.460;2022-11-20T01:14:16;100654.06;;;1.03;86.41
50550;BME280;36505;52.512;13.460;2022-11-20T01:16:51;100649.72;;;1.02;86.64
50550;BME280;36505;52.512;13.460;2022-11-20T01:19:19;100655.28;;;1.01;86.63
50550;BME280;36505;52.512;13.460;2022-11-20T01:21:47;100649.06;;;1.00;86.59
50550;BME280;36505;52.512;13.460;2022-11-20T01:24:15;100646.38;;;1.00;86.82
50550;BME280;36505;52.512;13.460;2022-11-20T01:26:42;100653.22;;;1.03;86.42
50550;BME280;36505;52.512;13.460;2022-11-20T01:29:14;100634.00;;;1.06;86.47
50550;BME280;36505;52.512;13.460;2022-11-20T01:31:40;100635.19;;;1.03;86.73
50550;BME280;36505;52.512;13.460;2022-11-20T01:34:09;100638.19;;;1.08;86.45
50550;BME280;36505;52.512;13.460;2022-11-20T01:36:36;100637.34;;;1.08;86.61
50550;BME280;36505;52.512;13.460;2022-11-20T01:39:06;100640.88;;;1.08;86.52
50550;BME280;36505;52.512;13.460;2022-11-20T01:41:33;100632.97;;;1.07;86.49
50550;BME280;36505;52.512;13.460;2022-11-20T01:44:20;100640.22;;;1.06;86.08
50550;BME280;36505;52.512;13.460;2022-11-20T01:47:13;100642.75;;;1.08;86.08
50550;BME280;36505;52.512;13.460;2022-11-20T01:49:44;100638.56;;;1.05;86.09
50550;BME280;36505;52.512;13.460;2022-11-20T01:54:50;100629.25;;;1.08;85.98
50550;BME280;36505;52.512;13.460;2022-11-20T01:57:17;100636.50;;;1.07;85.93
50550;BME280;36505;52.512;13.460;2022-11-20T01:59:49;100640.41;;;1.05;86.23
50550;BME280;36505;52.512;13.460;2022-11-20T02:02:17;100630.63;;;1.04;86.14
50550;BME280;36505;52.512;13.460;2022-11-20T02:04:44;100628.97;;;1.03;86.22
50550;BME280;36505;52.512;13.460;2022-11-20T02:07:10;100635.59;;;1.00;86.15
50550;BME280;36505;52.512;13.460;2022-11-20T02:09:35;100628.88;;;0.96;86.35
50550;BME280;36505;52.512;13.460;2022-11-20T02:12:01;100615.13;;;0.91;85.72
50550;BME280;36505;52.512;13.460;2022-11-20T02:14:27;100624.22;;;0.90;86.21
50550;BME280;36505;52.512;13.460;2022-11-20T02:16:53;100599.75;;;0.77;85.91
50550;BME280;36505;52.512;13.460;2022-11-20T02:19:28;100615.28;;;0.90;86.00
50550;BME280;36505;52.512;13.460;2022-11-20T02:22:14;100619.66;;;0.91;86.06
50550;BME280;36505;52.512;13.460;2022-11-20T02:24:43;100616.50;;;0.87;85.88
50550;BME280;36505;52.512;13.460;2022-11-20T02:27:14;100623.38;;;0.90;85.48
50550;BME280;36505;52.512;13.460;2022-11-20T02:30:02;100613.34;;;0.84;85.74
50550;BME280;36505;52.512;13.460;2022-11-20T02:32:34;100617.34;;;0.88;85.63
50550;BME280;36505;52.512;13.460;2022-11-20T02:37:56;100608.78;;;0.84;85.33
50550;BME280;36505;52.512;13.460;2022-11-20T02:40:22;100624.97;;;0.84;85.25
50550;BME280;36505;52.512;13.460;2022-11-20T02:42:51;100617.53;;;0.86;84.81
50550;BME280;36505;52.512;13.460;2022-11-20T02:45:16;100604.78;;;0.80;84.89
50550;BME280;36505;52.512;13.460;2022-11-20T02:47:42;100614.34;;;0.83;84.60
50550;BME280;36505;52.512;13.460;2022-11-20T02:50:07;100612.22;;;0.78;84.31
50550;BME280;36505;52.512;13.460;2022-11-20T02:52:33;100613.25;;;0.77;84.54
50550;BME280;36505;52.512;13.460;2022-11-20T02:54:58;100611.56;;;0.76;84.67
50550;BME280;36505;52.512;13.460;2022-11-20T02:57:23;100607.22;;;0.75;84.55
50550;BME280;36505;52.512;13.460;2022-11-20T02:59:49;100612.41;;;0.76;84.29
50550;BME280;36505;52.512;13.460;2022-11-20T03:02:14;100613.91;;;0.79;84.54
50550;BME280;36505;52.512;13.460;2022-11-20T03:04:40;100600.16;;;0.74;84.72
50550;BME280;36505;52.512;13.460;2022-11-20T03:07:05;100602.44;;;0.77;84.56
50550;BME280;36505;52.512;13.460;2022-11-20T03:09:30;100599.59;;;0.78;84.43
50550;BME280;36505;52.512;13.460;2022-11-20T03:11:56;100603.13;;;0.79;84.51
50550;BME280;36505;52.512;13.460;2022-11-20T03:14:21;100593.75;;;0.75;84.40
50550;BME280;36505;52.512;13.460;2022-11-20T03:16:46;100605.63;;;0.81;84.29
50550;BME280;36505;52.512;13.460;2022-11-20T03:19:12;100598.56;;;0.79;84.11
50550;BME280;36505;52.512;13.460;2022-11-20T03:21:38;100590.84;;;0.76;84.04
50550;BME280;36505;52.512;13.460;2022-11-20T03:24:03;100589.38;;;0.74;84.32
50550;BME280;36505;52.512;13.460;2022-11-20T03:26:29;100589.81;;;0.77;84.49
50550;BME280;36505;52.512;13.460;2022-11-20T03:29:00;100596.88;;;0.78;84.16
50550;BME280;36505;52.512;13.460;2022-11-20T03:31:29;100590.00;;;0.76;84.14
50550;BME280;36505;52.512;13.460;2022-11-20T03:33:56;100592.41;;;0.71;84.48
50550;BME280;36505;52.512;13.460;2022-11-20T03:36:22;100588.69;;;0.72;84.32
50550;BME280;36505;52.512;13.460;2022-11-20T03:38:48;100591.66;;;0.77;84.22
50550;BME280;36505;52.512;13.460;2022-11-20T03:41:19;100591.66;;;0.77;84.51
50550;BME280;36505;52.512;13.460;2022-11-20T03:46:21;100581.72;;;0.77;84.15
50550;BME280;36505;52.512;13.460;2022-11-20T03:48:47;100580.88;;;0.77;83.97
50550;BME280;36505;52.512;13.460;2022-11-20T03:51:35;100577.19;;;0.78;84.12
50550;BME280;36505;52.512;13.460;2022-11-20T03:54:06;100585.94;;;0.80;83.91
50550;BME280;36505;52.512;13.460;2022-11-20T03:56:35;100584.44;;;0.77;83.77
50550;BME280;36505;52.512;13.460;2022-11-20T03:59:00;100590.84;;;0.76;84.01
50550;BME280;36505;52.512;13.460;2022-11-20T04:01:29;100585.44;;;0.76;84.30
50550;BME280;36505;52.512;13.460;2022-11-20T04:03:55;100583.59;;;0.77;84.05
50550;BME280;36505;52.512;13.460;2022-11-20T04:06:25;100581.06;;;0.75;84.43
50550;BME280;36505;52.512;13.460;2022-11-20T04:08:51;100579.22;;;0.76;83.84
50550;BME280;36505;52.512;13.460;2022-11-20T04:11:22;100577.84;;;0.80;83.80
50550;BME280;36505;52.512;13.460;2022-11-20T04:13:59;100579.78;;;0.86;83.99
50550;BME280;36505;52.512;13.460;2022-11-20T04:16:26;100581.81;;;0.84;84.04
50550;BME280;36505;52.512;13.460;2022-11-20T04:18:56;100579.31;;;0.83;83.83
50550;BME280;36505;52.512;13.460;2022-11-20T04:21:22;100587.03;;;0.86;83.74
50550;BME280;36505;52.512;13.460;2022-11-20T04:23:49;100576.81;;;0.81;83.68
50550;BME280;36505;52.512;13.460;2022-11-20T04:26:14;100586.75;;;0.81;84.08
50550;BME280;36505;52.512;13.460;2022-11-20T04:28:40;100582.38;;;0.79;83.72
50550;BME280;36505;52.512;13.460;2022-11-20T04:31:07;100585.25;;;0.78;83.74
50550;BME280;36505;52.512;13.460;2022-11-20T04:33:34;100586.94;;;0.79;83.52
50550;BME280;36505;52.512;13.460;2022-11-20T04:36:13;100589.16;;;0.75;83.80
50550;BME280;36505;52.512;13.460;2022-11-20T04:38:39;100586.84;;;0.72;83.49
50550;BME280;36505;52.512;13.460;2022-11-20T04:41:06;100578.59;;;0.74;83.17
50550;BME280;36505;52.512;13.460;2022-11-20T04:43:33;100577.25;;;0.70;82.83
50550;BME280;36505;52.512;13.460;2022-11-20T04:45:59;100578.28;;;0.69;82.94
50550;BME280;36505;52.512;13.460;2022-11-20T04:48:26;100567.22;;;0.64;82.89
50550;BME280;36505;52.512;13.460;2022-11-20T04:50:53;100563.88;;;0.62;82.27
50550;BME280;36505;52.512;13.460;2022-11-20T04:53:19;100569.25;;;0.62;82.23
50550;BME280;36505;52.512;13.460;2022-11-20T04:55:45;100572.34;;;0.59;82.20
50550;BME280;36505;52.512;13.460;2022-11-20T04:58:11;100570.84;;;0.56;82.47
50550;BME280;36505;52.512;13.460;2022-11-20T05:00:36;100569.72;;;0.51;82.48
50550;BME280;36505;52.512;13.460;2022-11-20T05:03:02;100560.13;;;0.48;82.76
50550;BME280;36505;52.512;13.460;2022-11-20T05:05:28;100557.66;;;0.47;82.94
50550;BME280;36505;52.512;13.460;2022-11-20T05:07:58;100552.63;;;0.44;82.85
50550;BME280;36505;52.512;13.460;2022-11-20T05:10:27;100551.94;;;0.42;83.07
50550;BME280;36505;52.512;13.460;2022-11-20T05:12:52;100545.28;;;0.37;82.99
50550;BME280;36505;52.512;13.460;2022-11-20T05:15:18;100545.00;;;0.32;83.21
50550;BME280;36505;52.512;13.460;2022-11-20T05:17:50;100547.97;;;0.37;83.82
50550;BME280;36505;52.512;13.460;2022-11-20T05:20:16;100540.06;;;0.36;83.60
50550;BME280;36505;52.512;13.460;2022-11-20T05:22:42;100541.38;;;0.40;83.60
50550;BME280;36505;52.512;13.460;2022-11-20T05:25:08;100536.84;;;0.41;83.44
50550;BME280;36505;52.512;13.460;2022-11-20T05:27:33;100542.84;;;0.43;83.40
50550;BME280;36505;52.512;13.460;2022-11-20T05:29:59;100535.50;;;0.36;83.47
50550;BME280;36505;52.512;13.460;2022-11-20T05:32:24;100539.53;;;0.41;83.33
50550;BME280;36505;52.512;13.460;2022-11-20T05:34:51;100540.81;;;0.45;83.32
50550;BME280;36505;52.512;13.460;2022-11-20T05:37:16;100544.19;;;0.47;83.50
50550;BME280;36505;52.512;13.460;2022-11-20T05:39:42;100546.50;;;0.50;83.40
50550;BME280;36505;52.512;13.460;2022-11-20T05:42:07;100539.41;;;0.49;83.80
50550;BME280;36505;52.512;13.460;2022-11-20T05:44:51;100537.78;;;0.48;83.35
50550;BME280;36505;52.512;13.460;2022-11-20T05:47:16;100534.03;;;0.49;83.52
50550;BME280;36505;52.512;13.460;2022-11-20T05:49:41;100540.91;;;0.51;83.48
50550;BME280;36505;52.512;13.460;2022-11-20T05:52:07;100532.66;;;0.53;83.72
50550;BME280;36505;52.512;13.460;2022-11-20T05:54:32;100533.50;;;0.53;83.94
50550;BME280;36505;52.512;13.460;2022-11-20T05:56:57;100533.13;;;0.56;83.76
50550;BME280;36505;52.512;13.460;2022-11-20T05:59:23;100535.81;;;0.56;83.52
50550;BME280;36505;52.512;13.460;2022-11-20T06:01:48;100534.97;;;0.56;84.03
50550;BME280;36505;52.512;13.460;2022-11-20T06:04:13;100540.34;;;0.56;83.85
50550;BME280;36505;52.512;13.460;2022-11-20T06:06:39;100531.25;;;0.57;83.73
50550;BME280;36505;52.512;13.460;2022-11-20T06:09:04;100532.94;;;0.58;83.87
50550;BME280;36505;52.512;13.460;2022-11-20T06:11:30;100525.88;;;0.57;83.87
50550;BME280;36505;52.512;13.460;2022-11-20T06:13:55;100525.69;;;0.58;83.77
50550;BME280;36505;52.512;13.460;2022-11-20T06:16:20;100519.38;;;0.51;83.74
50550;BME280;36505;52.512;13.460;2022-11-20T06:18:47;100515.47;;;0.54;84.04
50550;BME280;36505;52.512;13.460;2022-11-20T06:21:17;100525.03;;;0.56;83.69
50550;BME280;36505;52.512;13.460;2022-11-20T06:23:43;100527.91;;;0.55;83.58
50550;BME280;36505;52.512;13.460;2022-11-20T06:26:14;100526.88;;;0.56;83.14
50550;BME280;36505;52.512;13.460;2022-11-20T06:28:40;100527.91;;;0.55;83.32
50550;BME280;36505;52.512;13.460;2022-11-20T06:31:06;100526.63;;;0.51;83.27
50550;BME280;36505;52.512;13.460;2022-11-20T06:33:32;100529.97;;;0.53;83.40
50550;BME280;36505;52.512;13.460;2022-11-20T06:35:59;100524.75;;;0.51;83.64
50550;BME280;36505;52.512;13.460;2022-11-20T06:38:25;100529.31;;;0.51;83.26
50550;BME280;36505;52.512;13.460;2022-11-20T06:40:51;100529.31;;;0.51;82.82
50550;BME280;36505;52.512;13.460;2022-11-20T06:43:16;100527.19;;;0.46;83.29
50550;BME280;36505;52.512;13.460;2022-11-20T06:45:41;100530.50;;;0.48;83.38
50550;BME280;36505;52.512;13.460;2022-11-20T06:48:08;100532.38;;;0.48;83.08
50550;BME280;36505;52.512;13.460;2022-11-20T06:50:36;100531.34;;;0.49;83.11
50550;BME280;36505;52.512;13.460;2022-11-20T06:53:02;100520.56;;;0.49;83.14
50550;BME280;36505;52.512;13.460;2022-11-20T06:55:28;100515.19;;;0.49;83.02
50550;BME280;36505;52.512;13.460;2022-11-20T06:57:53;100520.56;;;0.49;81.85
50550;BME280;36505;52.512;13.460;2022-11-20T07:00:19;100524.84;;;0.43;82.29
50550;BME280;36505;52.512;13.460;2022-11-20T07:02:44;100526.88;;;0.41;82.25
50550;BME280;36505;52.512;13.460;2022-11-20T07:05:10;100520.84;;;0.39;82.64
50550;BME280;36505;52.512;13.460;2022-11-20T07:07:35;100518.06;;;0.47;85.68
50550;BME280;36505;52.512;13.460;2022-11-20T07:10:00;100506.34;;;0.55;86.25
50550;BME280;36505;52.512;13.460;2022-11-20T07:12:26;100513.91;;;0.59;85.08
50550;BME280;36505;52.512;13.460;2022-11-20T07:14:51;100521.69;;;0.69;84.49
50550;BME280;36505;52.512;13.460;2022-11-20T07:17:17;100522.09;;;0.81;83.92
50550;BME280;36505;52.512;13.460;2022-11-20T07:19:42;100518.91;;;0.77;82.51
50550;BME280;36505;52.512;13.460;2022-11-20T07:22:08;100526.72;;;0.72;81.97
50550;BME280;36505;52.512;13.460;2022-11-20T07:24:33;100524.78;;;0.66;81.68
50550;BME280;36505;52.512;13.460;2022-11-20T07:27:00;100518.38;;;0.67;81.94
50550;BME280;36505;52.512;13.460;2022-11-20T07:29:25;100521.41;;;0.64;81.66
50550;BME280;36505;52.512;13.460;2022-11-20T07:31:50;100526.81;;;0.64;81.76
50550;BME280;36505;52.512;13.460;2022-11-20T07:34:16;100517.25;;;0.61;81.19
50550;BME280;36505;52.512;13.460;2022-11-20T07:36:41;100526.81;;;0.64;81.53
50550;BME280;36505;52.512;13.460;2022-11-20T07:39:06;100525.78;;;0.65;81.29
50550;BME280;36505;52.512;13.460;2022-11-20T07:41:32;100520.41;;;0.65;81.17
50550;BME280;36505;52.512;13.460;2022-11-20T07:43:58;100512.03;;;0.60;80.91
50550;BME280;36505;52.512;13.460;2022-11-20T07:46:23;100513.16;;;0.65;80.28
50550;BME280;36505;52.512;13.460;2022-11-20T07:48:48;100513.72;;;0.61;80.02
50550;BME280;36505;52.512;13.460;2022-11-20T07:51:14;100521.50;;;0.56;80.46
50550;BME280;36505;52.512;13.460;2022-11-20T07:53:39;100518.34;;;0.52;80.66
50550;BME280;36505;52.512;13.460;2022-11-20T07:56:05;100511.28;;;0.51;80.45
50550;BME280;36505;52.512;13.460;2022-11-20T07:58:31;100513.97;;;0.51;80.81
50550;BME280;36505;52.512;13.460;2022-11-20T08:01:02;100511.47;;;0.50;80.87
50550;BME280;36505;52.512;13.460;2022-11-20T08:03:28;100510.84;;;0.48;80.97
50550;BME280;36505;52.512;13.460;2022-11-20T08:05:53;100506.25;;;0.48;80.57
50550;BME280;36505;52.512;13.460;2022-11-20T08:08:19;100502.75;;;0.48;80.38
50550;BME280;36505;52.512;13.460;2022-11-20T08:10:45;100507.19;;;0.55;80.27
50550;BME280;36505;52.512;13.460;2022-11-20T08:13:11;100501.81;;;0.55;80.30
50550;BME280;36505;52.512;13.460;2022-11-20T08:15:54;100511.88;;;0.61;80.27
50550;BME280;36505;52.512;13.460;2022-11-20T08:18:20;100510.47;;;0.65;80.38
50550;BME280;36505;52.512;13.460;2022-11-20T08:20:45;100509.06;;;0.69;79.97
50550;BME280;36505;52.512;13.460;2022-11-20T08:23:11;100500.59;;;0.72;79.60
50550;BME280;36505;52.512;13.460;2022-11-20T08:25:37;100500.44;;;0.74;79.48
50550;BME280;36505;52.512;13.460;2022-11-20T08:28:09;100508.97;;;0.77;79.40
50550;BME280;36505;52.512;13.460;2022-11-20T08:30:35;100503.38;;;0.79;79.51
50550;BME280;36505;52.512;13.460;2022-11-20T08:33:04;100496.41;;;0.85;79.43
50550;BME280;36505;52.512;13.460;2022-11-20T08:35:33;100496.50;;;0.91;79.32
50550;BME280;36505;52.512;13.460;2022-11-20T08:38:00;100492.97;;;0.91;79.21
50550;BME280;36505;52.512;13.460;2022-11-20T08:40:25;100495.84;;;0.89;79.45
50550;BME280;36505;52.512;13.460;2022-11-20T08:42:51;100500.03;;;0.92;79.29
50550;BME280;36505;52.512;13.460;2022-11-20T08:45:18;100495.66;;;0.91;79.51
50550;BME280;36505;52.512;13.460;2022-11-20T08:47:44;100500.59;;;0.87;79.27
50550;BME280;36505;52.512;13.460;2022-11-20T08:50:11;100489.34;;;0.84;79.88
50550;BME280;36505;52.512;13.460;2022-11-20T08:52:37;100492.44;;;0.81;79.52
50550;BME280;36505;52.512;13.460;2022-11-20T08:55:03;100488.50;;;0.83;79.37
50550;BME280;36505;52.512;13.460;2022-11-20T08:57:34;100489.16;;;0.85;79.46
50550;BME280;36505;52.512;13.460;2022-11-20T09:00:00;100480.50;;;0.90;79.25
50550;BME280;36505;52.512;13.460;2022-11-20T09:02:26;100479.47;;;0.91;79.65
50550;BME280;36505;52.512;13.460;2022-11-20T09:04:51;100483.00;;;0.91;79.60
50550;BME280;36505;52.512;13.460;2022-11-20T09:07:17;100480.13;;;0.93;79.53
50550;BME280;36505;52.512;13.460;2022-11-20T09:09:43;100486.63;;;0.98;79.18
50550;BME280;36505;52.512;13.460;2022-11-20T09:12:08;100497.88;;;1.02;79.09
50550;BME280;36505;52.512;13.460;2022-11-20T09:14:34;100492.50;;;1.02;79.34
50550;BME280;36505;52.512;13.460;2022-11-20T09:16:59;100484.94;;;0.97;79.29
50550;BME280;36505;52.512;13.460;2022-11-20T09:19:25;100498.91;;;1.01;79.25
50550;BME280;36505;52.512;13.460;2022-11-20T09:21:50;100486.63;;;0.98;78.96
50550;BME280;36505;52.512;13.460;2022-11-20T09:24:16;100498.50;;;1.04;78.80
50550;BME280;36505;52.512;13.460;2022-11-20T09:26:41;100509.50;;;1.02;78.92
50550;BME280;36505;52.512;13.460;2022-11-20T09:29:07;100497.88;;;1.02;79.00
50550;BME280;36505;52.512;13.460;2022-11-20T09:31:32;100502.63;;;1.00;79.11
50550;BME280;36505;52.512;13.460;2022-11-20T09:33:58;100496.41;;;0.99;78.96
50550;BME280;36505;52.512;13.460;2022-11-20T09:36:23;100502.44;;;1.01;78.67
50550;BME280;36505;52.512;13.460;2022-11-20T09:38:48;100498.34;;;1.05;78.73
50550;BME280;36505;52.512;13.460;2022-11-20T09:50:32;100487.34;;;1.22;78.41
50550;BME280;36505;52.512;13.460;2022-11-20T09:55:35;100490.66;;;1.24;77.88
50550;BME280;36505;52.512;13.460;2022-11-20T09:58:06;100482.19;;;1.27;77.35
50550;BME280;36505;52.512;13.460;2022-11-20T10:00:31;100485.34;;;1.30;77.89
50550;BME280;36505;52.512;13.460;2022-11-20T10:03:05;100484.78;;;1.35;77.82
50550;BME280;36505;52.512;13.460;2022-11-20T10:05:53;100488.31;;;1.35;77.22
50550;BME280;36505;52.512;13.460;2022-11-20T10:08:29;100483.00;;;1.42;76.50
50550;BME280;36505;52.512;13.460;2022-11-20T10:30:08;100468.22;;;1.59;75.33
50550;BME280;36505;52.512;13.460;2022-11-20T10:32:42;100465.50;;;1.59;75.32
50550;BME280;36505;52.512;13.460;2022-11-20T10:37:42;100443.81;;;1.46;75.22
50550;BME280;36505;52.512;13.460;2022-11-20T10:42:54;100442.19;;;1.51;75.85
50550;BME280;36505;52.512;13.460;2022-11-20T10:47:50;100440.13;;;1.53;75.24
50550;BME280;36505;52.512;13.460;2022-11-20T10:50:19;100444.50;;;1.54;75.76
50550;BME280;36505;52.512;13.460;2022-11-20T10:58:07;100435.03;;;1.65;75.51
50550;BME280;36505;52.512;13.460;2022-11-20T11:00:35;100435.94;;;1.72;75.81
50550;BME280;36505;52.512;13.460;2022-11-20T11:03:01;100435.22;;;1.85;75.50
50550;BME280;36505;52.512;13.460;2022-11-20T11:05:54;100428.97;;;1.84;75.21
50550;BME280;36505;52.512;13.460;2022-11-20T11:08:20;100447.84;;;2.06;74.96
50550;BME280;36505;52.512;13.460;2022-11-20T11:10:57;100446.44;;;2.10;74.02
50550;BME280;36505;52.512;13.460;2022-11-20T11:13:24;100436.75;;;2.22;74.04
50550;BME280;36505;52.512;13.460;2022-11-20T11:15:51;100445.09;;;2.27;73.96
50550;BME280;36505;52.512;13.460;2022-11-20T11:18:33;100444.13;;;2.41;73.61
50550;BME280;36505;52.512;13.460;2022-11-20T11:21:04;100437.94;;;2.47;73.46
50550;BME280;36505;52.512;13.460;2022-11-20T11:25:59;100435.75;;;2.64;72.77
50550;BME280;36505;52.512;13.460;2022-11-20T11:28:25;100432.44;;;2.68;72.70
50550;BME280;36505;52.512;13.460;2022-11-20T11:30:53;100431.22;;;2.71;71.86
50550;BME280;36505;52.512;13.460;2022-11-20T11:33:27;100414.50;;;2.61;71.86
50550;BME280;36505;52.512;13.460;2022-11-20T11:35:58;100426.97;;;2.55;72.27
50550;BME280;36505;52.512;13.460;2022-11-20T11:38:34;100425.28;;;2.54;72.69
50550;BME280;36505;52.512;13.460;2022-11-20T11:41:00;100420.88;;;2.47;72.87
50550;BME280;36505;52.512;13.460;2022-11-20T11:43:30;100420.91;;;2.53;73.72
50550;BME280;36505;52.512;13.460;2022-11-20T11:46:25;100412.66;;;2.61;74.89
50550;BME280;36505;52.512;13.460;2022-11-20T11:49:00;100411.63;;;2.62;74.91
50550;BME280;36505;52.512;13.460;2022-11-20T11:52:04;100416.59;;;2.59;74.29
50550;BME280;36505;52.512;13.460;2022-11-20T11:57:09;100404.50;;;2.55;74.31
50550;BME280;36505;52.512;13.460;2022-11-20T12:00:06;100407.00;;;2.56;74.17
50550;BME280;36505;52.512;13.460;2022-11-20T12:05:40;100408.22;;;2.47;75.23
50550;BME280;36505;52.512;13.460;2022-11-20T12:08:19;100409.47;;;2.45;76.22
50550;BME280;36505;52.512;13.460;2022-11-20T12:11:14;100409.84;;;2.42;76.83
50550;BME280;36505;52.512;13.460;2022-11-20T12:13:53;100401.56;;;2.43;76.93
50550;BME280;36505;52.512;13.460;2022-11-20T12:16:20;100411.28;;;2.37;76.71
50550;BME280;36505;52.512;13.460;2022-11-20T12:18:50;100402.78;;;2.41;76.55
50550;BME280;36505;52.512;13.460;2022-11-20T12:26:54;100400.22;;;2.32;77.13
50550;BME280;36505;52.512;13.460;2022-11-20T12:39:56;100374.81;;;2.20;76.95
50550;BME280;36505;52.512;13.460;2022-11-20T12:42:45;100389.84;;;2.29;76.92
50550;BME280;36505;52.512;13.460;2022-11-20T12:45:46;100365.88;;;2.20;76.75
50550;BME280;36505;52.512;13.460;2022-11-20T13:02:41;100364.09;;;1.99;76.40
50550;BME280;36505;52.512;13.460;2022-11-20T13:07:54;100367.16;;;1.89;77.10
50550;BME280;36505;52.512;13.460;2022-11-20T13:10:41;100364.00;;;1.86;77.03
50550;BME280;36505;52.512;13.460;2022-11-20T13:13:16;100356.91;;;1.85;76.41
50550;BME280;36505;52.512;13.460;2022-11-20T13:16:06;100358.78;;;1.84;76.74
50550;BME280;36505;52.512;13.460;2022-11-20T13:18:38;100344.22;;;1.79;76.02
50550;BME280;36505;52.512;13.460;2022-11-20T13:21:17;100354.69;;;1.88;76.23
50550;BME280;36505;52.512;13.460;2022-11-20T13:23:43;100358.22;;;1.89;76.30
50550;BME280;36505;52.512;13.460;2022-11-20T13:26:16;100357.59;;;1.93;76.42
50550;BME280;36505;52.512;13.460;2022-11-20T13:28:42;100354.25;;;1.91;76.91
50550;BME280;36505;52.512;13.460;2022-11-20T13:33:56;100348.53;;;2.01;76.98
50550;BME280;36505;52.512;13.460;2022-11-20T13:36:25;100344.78;;;2.02;76.63
50550;BME280;36505;52.512;13.460;2022-11-20T13:38:53;100348.47;;;1.94;76.79
50550;BME280;36505;52.512;13.460;2022-11-20T13:41:27;100344.31;;;1.92;77.27
50550;BME280;36505;52.512;13.460;2022-11-20T13:43:58;100341.00;;;1.90;76.60
50550;BME280;36505;52.512;13.460;2022-11-20T13:46:42;100332.44;;;1.86;76.46
50550;BME280;36505;52.512;13.460;2022-11-20T13:49:14;100340.53;;;1.86;76.68
50550;BME280;36505;52.512;13.460;2022-11-20T13:51:48;100341.19;;;1.88;76.92
50550;BME280;36505;52.512;13.460;2022-11-20T14:00:18;100343.91;;;1.95;76.80
50550;BME280;36505;52.512;13.460;2022-11-20T14:05:32;100343.09;;;1.94;77.44
50550;BME280;36505;52.512;13.460;2022-11-20T14:08:03;100352.03;;;1.95;77.18
50550;BME280;36505;52.512;13.460;2022-11-20T14:10:29;100352.22;;;1.93;77.14
50550;BME280;36505;52.512;13.460;2022-11-20T14:12:55;100355.69;;;1.87;77.22
50550;BME280;36505;52.512;13.460;2022-11-20T14:15:32;100346.97;;;1.85;77.49
50550;BME280;36505;52.512;13.460;2022-11-20T14:17:59;100341.78;;;1.84;77.51
50550;BME280;36505;52.512;13.460;2022-11-20T14:20:27;100346.78;;;1.87;77.45
50550;BME280;36505;52.512;13.460;2022-11-20T14:22:55;100344.66;;;1.82;77.57
50550;BME280;36505;52.512;13.460;2022-11-20T14:27:52;100346.13;;;1.85;77.61
50550;BME280;36505;52.512;13.460;2022-11-20T14:30:26;100345.50;;;1.83;77.92
50550;BME280;36505;52.512;13.460;2022-11-20T14:33:00;100352.56;;;1.84;77.79
50550;BME280;36505;52.512;13.460;2022-11-20T14:35:29;100352.56;;;1.84;77.76
50550;BME280;36505;52.512;13.460;2022-11-20T14:37:55;100355.06;;;1.85;77.89
50550;BME280;36505;52.512;13.460;2022-11-20T14:40:35;100357.34;;;1.82;77.06
50550;BME280;36505;52.512;13.460;2022-11-20T14:43:02;100350.41;;;1.73;77.01
50550;BME280;36505;52.512;13.460;2022-11-20T14:45:30;100347.69;;;1.73;76.94